Time;durP1;ratioP1;P1;durP2;ratioP2;P2;SDS_P1;SDS_P2;PMS_P1;PMS_P2;Temp;Humidity;BMP_temperature;BMP_pressure;BME280_temperature;BME280_humidity;BME280_pressure;Samples;Min_cycle;Max_cycle;Signal;HPM_P1;HPM_P2
2022/01/21 00:01:12;;;;;;;4.10;1.92;;;20.20;46.90;;;;;;4993157;28;20031;-73
2022/01/21 00:03:38;;;;;;;4.05;2.17;;;20.20;46.70;;;;;;4994683;28;20300;-73
2022/01/21 00:06:07;;;;;;;3.75;2.30;;;20.20;46.70;;;;;;4976877;28;20058;-72
2022/01/21 00:08:39;;;;;;;5.35;2.58;;;20.20;46.70;;;;;;4976897;28;20050;-72
2022/01/21 00:11:05;;;;;;;4.75;2.40;;;20.20;46.70;;;;;;4992741;28;20026;-72
2022/01/21 00:13:34;;;;;;;3.60;2.10;;;20.20;46.70;;;;;;5009451;28;20109;-73
2022/01/21 00:16:11;;;;;;;3.10;1.97;;;20.20;46.60;;;;;;4994312;28;20026;-73
2022/01/21 00:18:40;;;;;;;5.10;2.05;;;20.20;46.70;;;;;;4993209;28;20505;-73
2022/01/21 00:32:06;;;;;;;3.95;2.00;;;20.20;46.70;;;;;;4993699;28;20094;-72
2022/01/21 00:34:32;;;;;;;4.32;2.10;;;20.20;46.70;;;;;;5009122;28;20038;-72
2022/01/21 00:36:58;;;;;;;4.00;2.20;;;20.20;46.60;;;;;;4992636;28;20026;-72
2022/01/21 00:39:27;;;;;;;4.32;2.08;;;20.20;46.70;;;;;;4992310;28;20391;-72
2022/01/21 00:44:21;;;;;;;4.22;2.00;;;20.20;46.60;;;;;;4992781;28;20037;-71
2022/01/21 00:46:48;;;;;;;4.70;2.22;;;20.20;46.70;;;;;;4992651;28;20030;-72
2022/01/21 00:49:15;;;;;;;4.38;2.20;;;20.20;46.70;;;;;;4993676;28;20483;-72
2022/01/21 00:51:41;;;;;;;3.50;1.67;;;20.20;46.70;;;;;;4991972;28;20027;-72
2022/01/21 00:54:07;;;;;;;3.53;1.77;;;20.20;46.60;;;;;;4992322;28;20088;-73
2022/01/21 00:56:33;;;;;;;2.80;1.90;;;20.20;46.50;;;;;;4993422;28;20022;-73
2022/01/21 00:58:59;;;;;;;3.47;1.90;;;20.20;46.50;;;;;;4992202;28;20030;-73
2022/01/21 01:01:24;;;;;;;4.18;2.00;;;20.20;46.60;;;;;;4976055;28;20062;-73
2022/01/21 01:03:50;;;;;;;3.17;2.10;;;20.20;46.60;;;;;;4993311;28;20034;-72
2022/01/21 01:06:16;;;;;;;3.53;2.15;;;20.20;46.60;;;;;;4976299;28;20026;-73
2022/01/21 01:08:42;;;;;;;3.92;2.05;;;20.20;46.50;;;;;;4975849;28;20038;-73
2022/01/21 01:21:54;;;;;;;5.07;1.83;;;20.20;46.60;;;;;;4991870;28;20101;-73
2022/01/21 01:29:53;;;;;;;4.68;2.08;;;20.20;46.50;;;;;;4991371;28;20030;-72
2022/01/21 01:32:18;;;;;;;5.05;1.95;;;20.20;46.60;;;;;;4992897;28;20398;-72
2022/01/21 01:34:44;;;;;;;3.80;1.90;;;20.20;46.20;;;;;;4991875;28;20027;-72
2022/01/21 01:37:20;;;;;;;3.83;1.90;;;20.20;46.50;;;;;;4991682;28;20097;-72
2022/01/21 01:39:58;;;;;;;3.88;1.88;;;20.20;46.50;;;;;;4991224;28;20022;-73
2022/01/21 01:50:42;;;;;;;3.72;1.77;;;20.20;46.40;;;;;;4956229;28;20039;-72
2022/01/21 01:53:08;;;;;;;3.10;1.77;;;20.20;46.60;;;;;;4991196;28;20383;-72
2022/01/21 01:55:35;;;;;;;4.07;1.92;;;20.10;46.40;;;;;;4975391;28;20037;-72
2022/01/21 01:58:02;;;;;;;3.30;1.83;;;20.20;46.40;;;;;;4991469;28;20022;-72
2022/01/21 02:00:28;;;;;;;3.10;1.80;;;20.20;46.50;;;;;;4975168;28;20551;-72
2022/01/21 02:02:53;;;;;;;2.78;1.60;;;20.20;46.40;;;;;;4992351;28;20109;-72
2022/01/21 02:05:19;;;;;;;3.00;1.80;;;20.20;46.20;;;;;;5007827;28;20403;-72
2022/01/21 02:07:45;;;;;;;3.83;1.90;;;20.20;46.50;;;;;;4992564;28;20529;-73
2022/01/21 02:10:12;;;;;;;4.00;1.90;;;20.20;46.40;;;;;;5007515;28;20034;-72
2022/01/21 02:12:41;;;;;;;5.13;2.00;;;20.20;46.50;;;;;;4992180;28;20049;-72
2022/01/21 02:15:07;;;;;;;3.00;1.92;;;20.10;46.30;;;;;;4991290;28;20029;-72
2022/01/21 02:22:48;;;;;;;3.22;1.70;;;20.10;46.30;;;;;;4992302;28;20066;-73
2022/01/21 02:25:20;;;;;;;3.95;1.98;;;20.10;46.40;;;;;;4991155;28;20034;-72
2022/01/21 02:27:53;;;;;;;2.42;1.58;;;20.10;46.30;;;;;;5006063;28;20034;-72
2022/01/21 02:30:22;;;;;;;3.47;1.80;;;20.10;46.20;;;;;;4977726;28;20372;-72
2022/01/21 02:32:56;;;;;;;3.20;1.60;;;20.10;46.30;;;;;;4994759;28;20034;-72
2022/01/21 02:35:23;;;;;;;3.35;1.63;;;20.10;46.40;;;;;;5011878;28;20550;-72
2022/01/21 02:37:50;;;;;;;3.67;1.80;;;20.10;46.30;;;;;;4995023;28;20046;-72
2022/01/21 02:40:17;;;;;;;3.25;1.70;;;20.10;46.40;;;;;;4994543;28;20105;-72
2022/01/21 02:42:43;;;;;;;3.15;2.00;;;20.10;46.30;;;;;;4994755;28;20027;-72
2022/01/21 02:45:13;;;;;;;2.25;1.20;;;20.10;46.40;;;;;;4994791;28;20034;-72
2022/01/21 02:47:40;;;;;;;3.63;1.85;;;20.10;46.40;;;;;;4994693;28;20030;-72
2022/01/21 02:50:06;;;;;;;3.20;1.70;;;20.10;46.40;;;;;;4995683;28;20026;-72
2022/01/21 02:52:40;;;;;;;2.45;1.60;;;20.10;46.30;;;;;;5011026;28;20100;-72
2022/01/21 02:55:10;;;;;;;2.53;1.50;;;20.10;46.40;;;;;;4978580;28;20034;-72
2022/01/21 02:57:36;;;;;;;3.50;1.60;;;20.10;46.30;;;;;;5010863;28;20033;-73
2022/01/21 03:00:05;;;;;;;3.00;1.50;;;20.10;46.40;;;;;;5010434;28;20038;-73
2022/01/21 03:02:30;;;;;;;4.28;1.50;;;20.10;46.40;;;;;;4995970;28;20030;-72
2022/01/21 03:05:05;;;;;;;3.33;1.70;;;20.10;46.40;;;;;;4978461;28;20041;-72
2022/01/21 03:07:31;;;;;;;3.40;1.73;;;20.10;46.30;;;;;;4994406;28;20497;-72
2022/01/21 03:09:57;;;;;;;2.78;1.67;;;20.10;46.30;;;;;;5010208;28;20030;-72
2022/01/21 03:12:23;;;;;;;4.63;1.70;;;20.10;46.30;;;;;;4994236;28;20030;-72
2022/01/21 03:14:50;;;;;;;3.47;1.63;;;20.10;46.30;;;;;;4995287;28;20026;-72
2022/01/21 03:17:16;;;;;;;2.65;1.52;;;20.10;46.20;;;;;;4994634;28;20042;-72
2022/01/21 03:19:42;;;;;;;2.85;1.45;;;20.10;46.00;;;;;;5009984;28;20031;-72
2022/01/21 03:22:07;;;;;;;6.28;1.80;;;20.10;46.30;;;;;;4993979;28;20093;-72
2022/01/21 03:24:33;;;;;;;3.13;1.70;;;20.10;46.20;;;;;;4993861;28;20030;-73
2022/01/21 03:26:59;;;;;;;3.92;1.80;;;20.10;46.20;;;;;;4994116;28;20042;-72
2022/01/21 03:29:25;;;;;;;3.10;1.50;;;20.10;46.20;;;;;;5009862;28;20023;-73
2022/01/21 03:31:51;;;;;;;3.38;1.70;;;20.10;46.20;;;;;;4993652;28;20038;-72
2022/01/21 03:34:22;;;;;;;3.35;1.92;;;20.10;46.10;;;;;;4993680;28;20581;-72
2022/01/21 03:36:53;;;;;;;3.72;1.77;;;20.10;46.20;;;;;;4994122;28;20050;-72
2022/01/21 03:39:26;;;;;;;3.65;1.70;;;20.10;46.20;;;;;;4993816;28;20033;-71
2022/01/21 03:42:04;;;;;;;3.25;1.77;;;20.10;46.10;;;;;;4994469;28;20030;-72
2022/01/21 03:44:30;;;;;;;3.70;1.92;;;20.10;46.20;;;;;;5009924;28;20502;-72
2022/01/21 03:46:56;;;;;;;3.55;1.60;;;20.10;46.10;;;;;;4977826;28;20030;-72
2022/01/21 03:49:22;;;;;;;2.47;1.58;;;20.10;46.30;;;;;;5009634;28;20080;-72
2022/01/21 03:51:48;;;;;;;3.30;1.52;;;20.10;46.30;;;;;;4993430;28;20038;-72
2022/01/21 03:54:14;;;;;;;3.35;1.63;;;20.10;46.20;;;;;;4976918;28;20487;-71
2022/01/21 03:56:40;;;;;;;3.85;1.67;;;20.10;46.20;;;;;;5009739;28;20038;-72
2022/01/21 03:59:07;;;;;;;2.83;1.60;;;20.10;46.20;;;;;;5009551;28;20034;-71
2022/01/21 04:01:33;;;;;;;3.80;1.80;;;20.10;46.20;;;;;;4977159;28;20026;-72
2022/01/21 04:03:59;;;;;;;3.22;1.73;;;20.10;46.20;;;;;;5009973;28;20029;-72
2022/01/21 04:06:25;;;;;;;4.03;1.70;;;20.10;46.20;;;;;;4993481;28;20030;-72
2022/01/21 04:08:51;;;;;;;2.90;1.60;;;20.10;46.10;;;;;;4994729;28;20030;-72
2022/01/21 04:11:18;;;;;;;3.15;1.60;;;20.10;46.20;;;;;;4992930;28;20033;-72
2022/01/21 04:13:46;;;;;;;3.33;1.85;;;20.10;46.00;;;;;;4977354;28;20027;-72
2022/01/21 04:16:16;;;;;;;2.55;1.60;;;20.10;46.20;;;;;;4994514;28;20053;-72
2022/01/21 04:18:42;;;;;;;3.03;1.70;;;20.00;46.20;;;;;;4993195;28;20112;-72
2022/01/21 04:21:10;;;;;;;4.15;1.80;;;20.10;46.20;;;;;;4976817;28;20046;-72
2022/01/21 04:23:36;;;;;;;4.05;1.70;;;20.10;46.20;;;;;;5009284;28;20125;-72
2022/01/21 04:26:03;;;;;;;3.65;1.90;;;20.10;46.20;;;;;;4992780;28;20049;-72
2022/01/21 04:28:29;;;;;;;6.28;2.00;;;20.00;46.00;;;;;;4992941;28;20116;-72
2022/01/21 04:30:58;;;;;;;3.05;1.70;;;20.10;46.10;;;;;;4992367;28;20032;-72
2022/01/21 04:33:36;;;;;;;4.43;1.70;;;20.10;46.20;;;;;;4992620;28;20041;-72
2022/01/21 04:36:04;;;;;;;3.08;1.70;;;20.10;46.10;;;;;;4992845;28;20113;-72
2022/01/21 04:38:33;;;;;;;;;;;20.10;46.20;;;;;;5009560;28;20053;-73
2022/01/21 04:49:16;;;;;;;3.80;1.75;;;20.10;46.00;;;;;;4992384;28;20395;-73
2022/01/21 04:52:02;;;;;;;3.55;1.77;;;20.10;46.00;;;;;;4976312;28;20060;-73
2022/01/21 04:54:33;;;;;;;3.50;1.80;;;20.10;45.90;;;;;;4992046;28;20398;-72
2022/01/21 04:57:01;;;;;;;3.67;2.00;;;20.10;45.70;;;;;;4991938;28;20026;-72
2022/01/21 04:59:26;;;;;;;3.35;1.98;;;20.10;45.80;;;;;;4992031;28;20483;-72
2022/01/21 05:01:53;;;;;;;5.68;2.08;;;20.10;45.80;;;;;;4992086;28;20080;-72
2022/01/21 05:04:20;;;;;;;3.05;2.08;;;20.10;46.00;;;;;;4992374;28;20092;-71
2022/01/21 05:06:50;;;;;;;3.28;1.73;;;20.10;46.00;;;;;;5008596;28;20188;-72
2022/01/21 05:09:17;;;;;;;3.58;1.80;;;20.10;46.00;;;;;;4992314;28;20034;-73
2022/01/21 05:11:44;;;;;;;3.20;1.80;;;20.10;45.80;;;;;;4975841;28;20070;-73
2022/01/21 05:14:23;;;;;;;3.60;1.80;;;20.10;46.00;;;;;;4975809;28;20133;-73
2022/01/21 05:17:04;;;;;;;3.70;1.80;;;20.10;46.00;;;;;;5008295;28;20031;-73
2022/01/21 05:19:30;;;;;;;2.60;1.70;;;20.10;45.90;;;;;;5008202;28;20030;-73
2022/01/21 05:22:34;;;;;;;2.45;1.55;;;20.10;45.90;;;;;;4932889;29;20038;-72
2022/01/21 05:25:00;;;;;;;3.60;1.70;;;20.00;46.00;;;;;;4917236;29;20035;-73
2022/01/21 05:27:26;;;;;;;2.90;1.73;;;20.00;46.00;;;;;;4950373;28;20046;-72
2022/01/21 05:29:52;;;;;;;2.50;1.70;;;20.10;46.10;;;;;;4991894;28;20038;-73
2022/01/21 05:32:21;;;;;;;4.93;1.70;;;20.10;45.90;;;;;;5007817;28;20448;-73
2022/01/21 05:35:03;;;;;;;2.88;1.73;;;20.10;45.80;;;;;;4991953;28;20042;-72
2022/01/21 05:37:39;;;;;;;2.92;1.60;;;20.10;45.90;;;;;;4975613;28;20495;-72
2022/01/21 05:40:15;;;;;;;2.40;1.42;;;20.10;46.00;;;;;;5007793;28;20109;-72
2022/01/21 05:42:51;;;;;;;3.10;1.77;;;20.10;46.00;;;;;;4991590;28;20073;-72
2022/01/21 05:48:40;;;;;;;3.75;1.90;;;20.00;45.90;;;;;;4992969;28;20034;-72
2022/01/21 05:51:25;;;;;;;3.88;1.60;;;20.10;45.80;;;;;;4992407;28;20034;-72
2022/01/21 05:53:59;;;;;;;3.70;1.73;;;20.00;45.80;;;;;;4991423;28;20038;-72
2022/01/21 05:56:31;;;;;;;4.63;1.80;;;20.00;45.90;;;;;;4991365;28;20030;-72
2022/01/21 05:59:07;;;;;;;4.72;1.83;;;20.00;45.90;;;;;;4976144;28;20026;-73
2022/01/21 06:01:36;;;;;;;3.80;2.05;;;20.10;45.70;;;;;;4991004;28;20027;-73
2022/01/21 06:04:02;;;;;;;4.30;1.60;;;20.00;45.90;;;;;;4992566;28;20041;-73
2022/01/21 06:06:29;;;;;;;3.22;2.10;;;20.10;45.90;;;;;;4991178;28;20399;-73
2022/01/21 06:08:55;;;;;;;3.45;1.77;;;20.10;46.00;;;;;;4992623;28;20033;-73
2022/01/21 06:11:21;;;;;;;3.13;1.70;;;20.10;45.80;;;;;;4990924;28;20034;-73
2022/01/21 06:13:49;;;;;;;4.45;2.22;;;20.10;45.80;;;;;;4991473;28;20088;-73
2022/01/21 06:16:16;;;;;;;3.08;1.90;;;20.10;45.80;;;;;;4991235;28;20084;-73
2022/01/21 06:18:42;;;;;;;3.33;1.90;;;20.10;45.80;;;;;;5007573;28;20031;-73
2022/01/21 06:21:08;;;;;;;2.88;1.63;;;20.10;45.80;;;;;;4991219;28;20030;-73
2022/01/21 06:23:34;;;;;;;3.40;2.08;;;20.10;45.80;;;;;;5007857;28;20222;-73
2022/01/21 06:25:59;;;;;;;4.60;2.00;;;20.10;45.80;;;;;;4992387;28;20088;-73
2022/01/21 06:28:25;;;;;;;4.03;2.13;;;20.10;45.90;;;;;;5007497;28;20399;-73
2022/01/21 06:30:51;;;;;;;4.15;2.05;;;20.10;45.80;;;;;;4992245;28;20041;-73
2022/01/21 06:33:17;;;;;;;3.70;1.95;;;20.00;45.80;;;;;;4990805;28;20109;-73
2022/01/21 06:35:42;;;;;;;3.42;2.00;;;20.00;45.90;;;;;;4992416;28;20037;-73
2022/01/21 06:38:08;;;;;;;3.85;1.80;;;20.00;45.80;;;;;;4992159;28;20383;-74
2022/01/21 06:40:34;;;;;;;2.83;1.80;;;20.00;45.80;;;;;;4991866;28;20025;-73
2022/01/21 06:43:02;;;;;;;3.95;1.90;;;20.00;45.80;;;;;;5007123;28;20491;-74
2022/01/21 06:45:29;;;;;;;3.65;1.70;;;20.00;45.90;;;;;;4992372;28;20031;-73
2022/01/21 06:47:58;;;;;;;3.55;1.90;;;20.00;45.80;;;;;;4992095;28;20113;-73
2022/01/21 06:50:25;;;;;;;3.10;1.97;;;20.00;45.90;;;;;;4990845;28;20399;-73
2022/01/21 06:52:51;;;;;;;3.15;1.70;;;20.00;45.80;;;;;;4991602;28;20027;-73
2022/01/21 06:55:16;;;;;;;4.70;2.10;;;20.00;45.70;;;;;;4992088;28;20073;-73
2022/01/21 06:57:42;;;;;;;3.50;2.08;;;20.00;45.70;;;;;;4992466;28;20110;-74
2022/01/21 07:00:11;;;;;;;4.00;2.03;;;20.00;45.60;;;;;;4991824;28;20022;-73
2022/01/21 07:02:37;;;;;;;3.08;1.95;;;20.00;45.80;;;;;;4992081;28;20395;-73
2022/01/21 07:05:04;;;;;;;3.28;1.80;;;20.00;45.80;;;;;;4992187;28;20058;-73
2022/01/21 07:07:31;;;;;;;3.72;2.03;;;20.00;45.80;;;;;;4991926;28;20041;-73
2022/01/21 07:09:57;;;;;;;3.20;2.05;;;20.00;45.90;;;;;;5006876;28;20034;-73
2022/01/21 07:12:22;;;;;;;3.92;1.85;;;20.00;45.80;;;;;;4991724;28;20034;-73
2022/01/21 07:14:48;;;;;;;3.60;1.90;;;20.00;45.80;;;;;;4992081;28;20027;-73
2022/01/21 07:17:14;;;;;;;4.43;2.03;;;20.00;45.60;;;;;;4994169;28;20122;-73
2022/01/21 07:19:39;;;;;;;3.00;1.88;;;20.00;45.80;;;;;;5010198;28;20049;-73
2022/01/21 07:22:05;;;;;;;3.97;1.80;;;20.00;45.70;;;;;;4994226;28;20030;-73
2022/01/21 07:24:31;;;;;;;4.22;2.22;;;20.00;45.60;;;;;;4995693;28;20027;-73
2022/01/21 07:26:57;;;;;;;5.50;2.08;;;20.00;45.80;;;;;;4995731;28;20029;-73
2022/01/21 07:29:23;;;;;;;3.28;1.80;;;20.00;45.70;;;;;;4994933;28;20402;-73
2022/01/21 07:31:53;;;;;;;3.45;2.03;;;20.00;45.70;;;;;;4994942;28;20022;-73
2022/01/21 07:34:23;;;;;;;3.50;1.70;;;20.00;45.50;;;;;;4995085;28;20030;-73
2022/01/21 07:36:50;;;;;;;2.72;1.75;;;20.00;45.70;;;;;;4995097;28;20031;-73
2022/01/21 07:39:15;;;;;;;5.13;1.90;;;20.10;45.70;;;;;;4993852;28;20398;-73
2022/01/21 07:41:41;;;;;;;2.92;1.80;;;20.10;45.80;;;;;;4994704;28;20104;-72
2022/01/21 07:44:07;;;;;;;3.35;1.80;;;20.10;45.70;;;;;;4977427;28;20101;-73
2022/01/21 07:46:33;;;;;;;3.80;1.92;;;20.10;45.70;;;;;;4993640;28;20027;-73
2022/01/21 07:48:59;;;;;;;4.10;1.98;;;20.10;45.70;;;;;;4995410;28;20030;-73
2022/01/21 07:51:26;;;;;;;3.92;2.03;;;20.00;45.70;;;;;;4993362;28;20038;-73
2022/01/21 07:53:52;;;;;;;3.33;1.90;;;20.10;45.80;;;;;;4994559;28;20399;-73
2022/01/21 07:56:17;;;;;;;4.03;2.10;;;20.10;45.80;;;;;;4993779;28;20076;-73
2022/01/21 07:58:43;;;;;;;3.40;2.03;;;20.00;45.70;;;;;;4977377;28;20026;-74
2022/01/21 08:01:09;;;;;;;3.85;1.88;;;20.00;45.60;;;;;;4994509;28;20034;-73
2022/01/21 08:03:35;;;;;;;3.00;1.88;;;20.00;45.60;;;;;;4993324;28;20030;-73
2022/01/21 08:06:01;;;;;;;3.10;1.90;;;20.10;45.70;;;;;;4993596;28;20023;-73
2022/01/21 08:08:27;;;;;;;4.25;2.00;;;20.10;45.50;;;;;;4993996;28;20391;-72
2022/01/21 08:10:53;;;;;;;3.53;1.80;;;20.00;45.60;;;;;;4993149;28;20351;-73
2022/01/21 08:13:20;;;;;;;3.05;1.90;;;20.00;45.70;;;;;;4994218;28;20081;-73
2022/01/21 08:15:46;;;;;;;3.42;1.92;;;20.00;45.70;;;;;;4994451;28;20037;-73
2022/01/21 08:18:12;;;;;;;4.22;2.20;;;20.10;45.70;;;;;;4994276;28;20109;-73
2022/01/21 08:20:38;;;;;;;4.22;2.10;;;20.10;45.80;;;;;;4993891;28;20033;-73
2022/01/21 08:23:04;;;;;;;3.45;2.00;;;20.00;45.50;;;;;;5009068;28;20038;-73
2022/01/21 08:25:30;;;;;;;3.80;2.30;;;20.10;45.80;;;;;;4993273;28;20030;-73
2022/01/21 08:27:55;;;;;;;3.95;2.00;;;20.00;45.60;;;;;;4992708;28;20030;-73
2022/01/21 08:30:22;;;;;;;4.43;1.90;;;20.00;45.70;;;;;;5008926;28;20333;-75
2022/01/21 08:32:47;;;;;;;3.95;1.85;;;20.00;45.60;;;;;;4992622;28;20121;-73
2022/01/21 08:35:13;;;;;;;3.92;2.00;;;20.00;45.80;;;;;;4993988;28;20105;-73
2022/01/21 08:37:39;;;;;;;4.28;2.10;;;20.00;45.80;;;;;;4976711;28;20030;-74
2022/01/21 08:40:06;;;;;;;3.67;1.90;;;20.00;45.80;;;;;;5008737;28;20398;-74
2022/01/21 08:42:31;;;;;;;4.10;2.15;;;20.00;45.70;;;;;;4994162;28;20030;-73
2022/01/21 08:44:57;;;;;;;4.55;2.30;;;20.00;45.70;;;;;;4993819;28;20509;-73
2022/01/21 08:47:23;;;;;;;5.65;2.20;;;20.00;45.60;;;;;;5009321;28;20549;-74
2022/01/21 08:49:49;;;;;;;4.45;2.22;;;20.10;45.50;;;;;;4993333;28;20513;-73
2022/01/21 08:52:20;;;;;;;6.22;2.25;;;20.10;45.60;;;;;;4993438;28;20026;-74
2022/01/21 08:54:50;;;;;;;5.20;2.10;;;20.10;45.60;;;;;;4993733;28;20030;-73
2022/01/21 08:57:16;;;;;;;3.45;2.08;;;20.10;45.50;;;;;;4992840;28;20050;-72
2022/01/21 08:59:42;;;;;;;4.30;2.20;;;20.10;45.50;;;;;;4993345;28;20089;-73
2022/01/21 09:02:09;;;;;;;4.63;2.30;;;20.10;45.70;;;;;;4992313;28;20178;-72
2022/01/21 09:04:35;;;;;;;4.35;2.38;;;20.10;45.40;;;;;;4994219;28;20030;-73
2022/01/21 09:07:01;;;;;;;3.50;2.15;;;20.10;45.40;;;;;;4992321;28;20037;-73
2022/01/21 09:09:28;;;;;;;3.25;1.95;;;20.10;45.50;;;;;;4975827;28;20026;-72
2022/01/21 09:11:59;;;;;;;4.65;2.50;;;20.10;45.60;;;;;;5008540;28;20027;-72
2022/01/21 09:14:27;;;;;;;4.22;2.10;;;20.10;45.60;;;;;;4993174;28;20230;-72
2022/01/21 09:16:53;;;;;;;5.80;2.50;;;20.20;45.60;;;;;;4991913;28;20030;-72
2022/01/21 09:19:19;;;;;;;5.07;2.40;;;20.10;45.60;;;;;;4992870;28;20479;-73
2022/01/21 09:21:45;;;;;;;3.78;2.10;;;20.10;45.60;;;;;;4993169;28;20027;-73
2022/01/21 09:24:11;;;;;;;5.22;2.17;;;20.20;45.60;;;;;;4993216;28;20026;-72
2022/01/21 09:26:38;;;;;;;4.25;2.15;;;20.20;45.30;;;;;;4992149;28;20045;-73
2022/01/21 09:29:06;;;;;;;4.70;2.60;;;20.30;45.30;;;;;;4991781;28;20105;-73
2022/01/21 09:31:33;;;;;;;3.67;1.98;;;20.30;45.10;;;;;;4992695;28;20030;-72
2022/01/21 09:33:58;;;;;;;3.58;1.98;;;20.30;45.10;;;;;;4991664;28;20049;-73
2022/01/21 09:36:24;;;;;;;6.38;2.35;;;20.30;45.00;;;;;;4992919;28;20022;-73
2022/01/21 09:38:50;;;;;;;4.30;2.30;;;20.30;45.10;;;;;;4992487;28;20026;-73
2022/01/21 09:41:17;;;;;;;3.65;2.20;;;20.30;45.10;;;;;;4992568;28;20026;-73
2022/01/21 09:43:46;;;;;;;6.05;2.60;;;20.30;45.20;;;;;;4992867;28;20486;-73
2022/01/21 09:46:13;;;;;;;4.95;2.08;;;20.30;45.20;;;;;;4992785;28;20074;-73
2022/01/21 09:48:51;;;;;;;4.40;2.30;;;20.30;45.40;;;;;;4992833;28;20105;-73
2022/01/21 09:51:18;;;;;;;4.10;2.22;;;20.20;45.30;;;;;;4991140;28;20092;-73
2022/01/21 09:53:44;;;;;;;4.97;2.33;;;20.20;45.50;;;;;;4992615;28;20061;-73
2022/01/21 09:56:10;;;;;;;4.68;2.35;;;20.20;45.50;;;;;;4992607;28;20022;-73
2022/01/21 09:58:36;;;;;;;4.53;2.30;;;20.30;45.40;;;;;;4991320;28;20030;-73
2022/01/21 10:01:09;;;;;;;5.32;2.28;;;20.20;45.20;;;;;;4990966;28;20117;-73
2022/01/21 10:03:35;;;;;;;5.32;2.28;;;20.20;45.30;;;;;;4991290;28;20035;-73
2022/01/21 10:06:03;;;;;;;4.45;2.13;;;20.30;45.50;;;;;;4991406;28;20502;-73
2022/01/21 10:08:30;;;;;;;5.85;2.58;;;20.30;45.40;;;;;;5007838;28;20037;-73
2022/01/21 10:10:56;;;;;;;5.25;2.35;;;20.30;45.20;;;;;;4992066;28;20036;-73
2022/01/21 10:13:22;;;;;;;4.95;2.33;;;20.30;45.30;;;;;;4992352;28;20027;-73
2022/01/21 10:15:48;;;;;;;3.63;2.08;;;20.30;45.20;;;;;;4975169;28;20037;-73
2022/01/21 10:18:17;;;;;;;3.90;2.20;;;20.30;45.30;;;;;;5007668;28;20030;-73
2022/01/21 10:20:58;;;;;;;5.35;2.13;;;20.30;45.00;;;;;;4991900;28;20077;-73
2022/01/21 10:23:25;;;;;;;7.38;2.42;;;20.30;45.20;;;;;;4992295;28;20026;-72
2022/01/21 10:26:01;;;;;;;6.20;2.58;;;20.30;45.00;;;;;;4992329;28;20498;-72
2022/01/21 10:28:27;;;;;;;5.07;2.20;;;20.40;45.20;;;;;;4992436;28;20491;-72
2022/01/21 10:31:07;;;;;;;4.18;2.40;;;20.40;45.30;;;;;;4991838;28;20081;-72
2022/01/21 10:33:38;;;;;;;5.25;2.38;;;20.40;45.30;;;;;;4991905;28;20522;-73
2022/01/21 10:36:21;;;;;;;4.47;2.08;;;20.40;45.00;;;;;;4991996;28;20027;-72
2022/01/21 10:38:52;;;;;;;4.18;2.20;;;20.40;45.60;;;;;;4992128;28;20062;-73
2022/01/21 10:41:21;;;;;;;4.07;2.00;;;20.40;45.00;;;;;;4990729;28;20028;-71
2022/01/21 10:44:06;;;;;;;5.18;2.20;;;20.40;45.10;;;;;;4991030;28;20037;-72
2022/01/21 10:46:32;;;;;;;5.22;2.22;;;20.40;45.10;;;;;;4991928;28;20525;-72
2022/01/21 10:49:10;;;;;;;7.40;2.70;;;20.40;45.00;;;;;;4990831;28;20306;-73
2022/01/21 10:51:39;;;;;;;5.53;2.47;;;20.40;45.10;;;;;;4993198;28;20034;-72
2022/01/21 10:54:31;;;;;;;5.43;2.30;;;20.40;45.20;;;;;;4995702;28;20099;-72
2022/01/21 10:57:13;;;;;;;4.03;2.10;;;20.40;45.30;;;;;;4993613;28;20034;-72
2022/01/21 11:00:03;;;;;;;4.53;2.22;;;20.30;45.20;;;;;;4978139;28;20057;-73
2022/01/21 11:02:53;;;;;;;3.83;2.25;;;20.30;45.40;;;;;;4995652;28;20045;-72
2022/01/21 11:05:24;;;;;;;5.05;2.50;;;20.30;45.30;;;;;;4995364;28;20096;-72
2022/01/21 11:08:05;;;;;;;3.65;2.10;;;20.30;45.30;;;;;;4995413;28;20088;-72
2022/01/21 11:10:40;;;;;;;6.53;2.65;;;20.30;45.40;;;;;;4993757;28;20034;-72
2022/01/21 11:13:12;;;;;;;6.68;2.45;;;20.30;45.50;;;;;;4995249;28;20031;-72
2022/01/21 11:15:43;;;;;;;3.58;1.85;;;20.20;45.30;;;;;;4995157;28;20067;-72
2022/01/21 11:18:13;;;;;;;4.57;2.35;;;20.30;45.40;;;;;;4995439;28;20073;-72
2022/01/21 11:20:41;;;;;;;5.45;2.30;;;20.30;45.50;;;;;;4994888;28;20518;-73
2022/01/21 11:23:11;;;;;;;5.47;2.20;;;20.30;45.50;;;;;;4998203;28;20041;-73
2022/01/21 11:26:09;;;;;;;;;;;20.30;45.50;;;;;;4995459;28;20034;-73
2022/01/21 11:28:45;;;;;;;4.82;2.50;;;20.30;45.40;;;;;;4987284;28;19952;-72
2022/01/21 11:31:13;;;;;;;5.78;2.60;;;20.40;45.40;;;;;;4993440;28;20030;-72
2022/01/21 11:33:38;;;;;;;4.97;2.33;;;20.40;45.40;;;;;;4994729;28;20053;-72
2022/01/21 11:36:06;;;;;;;4.53;2.10;;;20.30;45.30;;;;;;4993617;28;20026;-72
2022/01/21 11:38:37;;;;;;;4.53;2.63;;;20.30;45.30;;;;;;5009854;28;20050;-73
2022/01/21 11:41:05;;;;;;;4.72;2.30;;;20.40;45.30;;;;;;4993472;28;20118;-72
2022/01/21 11:43:33;;;;;;;6.57;2.35;;;20.40;45.20;;;;;;4994797;28;20550;-73
2022/01/21 11:48:52;;;;;;;5.72;2.67;;;20.40;45.20;;;;;;4994795;28;20034;-73
2022/01/21 11:51:39;;;;;;;5.07;2.40;;;20.40;45.20;;;;;;4994813;28;20076;-72
2022/01/21 11:54:11;;;;;;;4.65;2.40;;;20.40;45.20;;;;;;4994885;28;20027;-73
2022/01/21 11:56:45;;;;;;;4.25;2.10;;;20.40;45.10;;;;;;4993704;28;20134;-73
2022/01/21 11:59:37;;;;;;;5.18;2.30;;;20.40;45.20;;;;;;4977672;28;20482;-72
2022/01/21 12:02:15;;;;;;;6.35;2.70;;;20.40;45.30;;;;;;4994198;28;20057;-73
2022/01/21 12:05:01;;;;;;;3.83;2.25;;;20.40;45.30;;;;;;4994613;28;20031;-73
2022/01/21 12:07:44;;;;;;;4.40;2.35;;;20.40;45.30;;;;;;4993638;28;20061;-73
2022/01/21 12:10:21;;;;;;;4.13;2.30;;;20.40;45.20;;;;;;4996316;28;20030;-73
2022/01/21 12:12:59;;;;;;;6.45;2.72;;;20.40;45.20;;;;;;4996078;28;20094;-73
2022/01/21 12:15:42;;;;;;;4.90;2.40;;;20.40;45.10;;;;;;4978825;28;20031;-73
2022/01/21 12:20:52;;;;;;;5.63;2.58;;;20.40;45.70;;;;;;4995884;28;20034;-72
2022/01/21 12:23:21;;;;;;;5.18;2.42;;;20.40;45.10;;;;;;4996323;28;20026;-72
2022/01/21 12:26:08;;;;;;;4.35;2.22;;;20.40;45.30;;;;;;4996294;28;20027;-72
2022/01/21 12:28:43;;;;;;;7.22;2.75;;;20.40;45.20;;;;;;4995180;28;20085;-72
2022/01/21 12:31:12;;;;;;;4.90;2.67;;;20.40;45.20;;;;;;4995778;28;20403;-73
2022/01/21 12:34:08;;;;;;;4.75;2.40;;;20.40;45.10;;;;;;4996106;28;20113;-71
2022/01/21 12:36:44;;;;;;;4.45;2.30;;;20.40;45.00;;;;;;5010989;28;20080;-72
2022/01/21 12:39:35;;;;;;;5.93;2.70;;;20.40;45.10;;;;;;4995057;28;20089;-72
2022/01/21 12:42:19;;;;;;;6.28;2.90;;;20.40;45.20;;;;;;4994607;28;20026;-72
2022/01/21 12:44:46;;;;;;;4.47;2.50;;;20.40;45.10;;;;;;4993162;28;20042;-72
2022/01/21 12:47:41;;;;;;;3.88;2.33;;;20.40;45.20;;;;;;4995401;28;20035;-72
2022/01/21 12:50:17;;;;;;;4.30;2.33;;;20.40;45.20;;;;;;4977420;28;20026;-72
2022/01/21 12:53:20;;;;;;;4.75;2.50;;;20.40;45.10;;;;;;4991542;28;20043;-72
2022/01/21 12:55:55;;;;;;;5.47;2.60;;;20.40;45.30;;;;;;4993889;28;20052;-72
2022/01/21 12:58:31;;;;;;;5.32;2.75;;;20.40;45.10;;;;;;4961619;28;20030;-73
2022/01/21 13:01:06;;;;;;;4.93;2.53;;;20.40;45.40;;;;;;4993595;28;20026;-72
2022/01/21 13:03:40;;;;;;;4.85;2.47;;;20.40;45.30;;;;;;4993234;28;20034;-72
2022/01/21 13:06:32;;;;;;;4.55;2.70;;;20.40;45.20;;;;;;4977125;28;20034;-72
2022/01/21 13:09:08;;;;;;;4.30;2.70;;;20.40;45.30;;;;;;4994399;28;20038;-72
2022/01/21 13:11:36;;;;;;;4.40;2.40;;;20.40;45.30;;;;;;4993042;28;20042;-72
2022/01/21 13:14:22;;;;;;;6.32;2.70;;;20.40;45.20;;;;;;4976062;28;20491;-73
2022/01/21 13:16:56;;;;;;;4.80;2.60;;;20.40;45.20;;;;;;4993825;28;20498;-70
2022/01/21 13:19:22;;;;;;;4.38;2.33;;;20.40;45.20;;;;;;4994796;28;20054;-73
2022/01/21 13:21:48;;;;;;;5.28;2.80;;;20.40;45.20;;;;;;4994953;28;20092;-73
2022/01/21 13:26:53;;;;;;;5.63;2.58;;;20.40;45.20;;;;;;4995084;28;20030;-73
2022/01/21 13:29:27;;;;;;;3.70;2.20;;;20.40;45.10;;;;;;4994077;28;20441;-73
2022/01/21 13:32:00;;;;;;;4.63;2.50;;;20.40;45.10;;;;;;4995978;28;20337;-72
2022/01/21 13:34:36;;;;;;;5.90;2.45;;;20.40;45.30;;;;;;4995786;28;20403;-69
2022/01/21 13:37:07;;;;;;;3.90;2.17;;;20.40;45.30;;;;;;4975226;28;20396;-66
2022/01/21 13:39:39;;;;;;;4.85;2.40;;;20.40;45.30;;;;;;4992510;28;20041;-66
2022/01/21 13:42:15;;;;;;;4.68;2.58;;;20.40;45.30;;;;;;4992712;28;20034;-69
2022/01/21 13:44:54;;;;;;;4.43;2.33;;;20.40;45.30;;;;;;5007770;28;20034;-69
2022/01/21 13:47:31;;;;;;;4.63;2.60;;;20.40;45.20;;;;;;4992614;28;20022;-69
2022/01/21 13:49:59;;;;;;;5.22;2.60;;;20.40;45.30;;;;;;4992306;28;20073;-69
2022/01/21 13:52:54;;;;;;;4.18;2.47;;;20.40;45.30;;;;;;4992373;28;20102;-69
2022/01/21 13:55:38;;;;;;;3.45;2.17;;;20.40;45.50;;;;;;4991593;28;20384;-69
2022/01/21 13:58:07;;;;;;;4.13;2.50;;;20.30;45.50;;;;;;4992465;28;20022;-69
2022/01/21 14:00:39;;;;;;;4.50;2.45;;;20.40;45.50;;;;;;4991991;28;20041;-69
2022/01/21 14:03:10;;;;;;;4.35;2.25;;;20.30;45.60;;;;;;4991366;28;20042;-69
2022/01/21 14:05:59;;;;;;;4.93;2.20;;;20.30;45.50;;;;;;4992384;28;20479;-69